createdAt,value
2019-04-26T00:01:40.345Z,9.20
2019-04-26T00:04:10.287Z,17.17
2019-04-26T00:06:39.704Z,19.13
2019-04-26T00:09:28.581Z,19.83
2019-04-26T00:12:14.707Z,14.10
2019-04-26T00:15:10.080Z,20.77
2019-04-26T00:17:49.051Z,11.57
2019-04-26T00:20:19.033Z,19.97
2019-04-26T00:22:48.398Z,16.83
2019-04-26T00:25:18.636Z,15.97
2019-04-26T00:27:47.736Z,20.13
2019-04-26T00:30:17.061Z,11.43
2019-04-26T00:32:46.296Z,14.77
2019-04-26T00:35:15.702Z,12.00
2019-04-26T00:37:44.847Z,13.07
2019-04-26T00:40:14.373Z,17.10
2019-04-26T00:42:44.932Z,17.80
2019-04-26T00:45:14.976Z,18.90
2019-04-26T00:47:45.388Z,9.83
2019-04-26T00:50:15.340Z,11.83
2019-04-26T00:52:45.669Z,13.37
2019-04-26T00:55:15.672Z,15.43
2019-04-26T00:57:45.934Z,16.73
2019-04-26T01:00:18.160Z,17.93
2019-04-26T01:02:51.389Z,13.67
2019-04-26T01:05:20.926Z,16.97
2019-04-26T01:07:52.317Z,11.73
2019-04-26T01:10:21.704Z,11.87
2019-04-26T01:12:50.892Z,14.77
2019-04-26T01:15:21.776Z,14.03
2019-04-26T01:17:50.893Z,11.87
2019-04-26T01:20:22.575Z,11.93
2019-04-26T01:22:54.234Z,14.13
2019-04-26T01:25:38.679Z,24.63
2019-04-26T01:28:10.471Z,13.10
2019-04-26T01:30:40.695Z,14.60
2019-04-26T01:33:10.517Z,15.30
2019-04-26T01:35:40.577Z,21.57
2019-04-26T01:38:13.131Z,12.60
2019-04-26T01:40:44.627Z,17.47
2019-04-26T01:43:26.790Z,19.63
2019-04-26T01:46:13.524Z,14.23
2019-04-26T01:49:06.736Z,11.80
2019-04-26T01:51:40.644Z,16.83
2019-04-26T01:54:13.815Z,15.30
2019-04-26T01:56:42.984Z,17.90
2019-04-26T01:59:15.294Z,15.07
2019-04-26T02:02:11.841Z,13.37
2019-04-26T02:04:44.027Z,14.50
2019-04-26T02:07:16.095Z,17.43
2019-04-26T02:09:45.299Z,26.63
2019-04-26T02:12:14.795Z,21.07
2019-04-26T02:14:43.988Z,15.00
2019-04-26T02:17:13.151Z,14.17
2019-04-26T02:19:42.264Z,14.97
2019-04-26T02:22:24.519Z,13.60
2019-04-26T02:24:54.468Z,17.73
2019-04-26T02:27:26.311Z,15.97
2019-04-26T02:29:56.144Z,20.27
2019-04-26T02:32:27.228Z,15.87
2019-04-26T02:34:56.865Z,41.03
2019-04-26T02:37:27.040Z,15.90
2019-04-26T02:39:57.007Z,16.53
2019-04-26T02:42:32.875Z,18.80
2019-04-26T02:45:33.940Z,27.73
2019-04-26T02:48:27.103Z,21.80
2019-04-26T02:51:02.627Z,19.80
2019-04-26T02:53:44.731Z,29.73
2019-04-26T02:56:46.804Z,22.47
2019-04-26T02:59:33.990Z,29.23
2019-04-26T03:02:05.586Z,28.03
2019-04-26T03:04:39.513Z,27.23
2019-04-26T03:07:19.880Z,22.60
2019-04-26T03:09:51.602Z,15.17
2019-04-26T03:12:24.751Z,17.43
2019-04-26T03:15:23.783Z,21.23
2019-04-26T03:18:16.431Z,36.80
2019-04-26T03:20:48.583Z,21.00
2019-04-26T03:23:57.495Z,28.80
2019-04-26T03:26:35.173Z,26.80
2019-04-26T03:29:25.570Z,24.77
2019-04-26T03:32:49.330Z,25.33
2019-04-26T03:35:55.348Z,21.60
2019-04-26T03:38:28.718Z,21.47
2019-04-26T03:41:19.168Z,23.57
2019-04-26T03:44:07.223Z,28.47
2019-04-26T03:47:03.133Z,16.53
2019-04-26T03:49:43.308Z,24.20
2019-04-26T03:52:39.659Z,26.20
2019-04-26T03:55:43.775Z,28.23
2019-04-26T03:58:17.663Z,30.80
2019-04-26T04:00:53.929Z,23.13
2019-04-26T04:03:33.629Z,18.40
2019-04-26T04:06:05.590Z,24.00
2019-04-26T04:08:44.665Z,16.70
2019-04-26T04:11:18.081Z,19.30
2019-04-26T04:14:01.869Z,18.90
2019-04-26T04:17:34.252Z,21.33
2019-04-26T04:20:32.095Z,20.57
2019-04-26T04:23:31.698Z,29.87
2019-04-26T04:26:03.858Z,18.93
2019-04-26T04:28:56.297Z,27.13
2019-04-26T04:31:34.125Z,29.67
2019-04-26T04:34:12.063Z,27.37
2019-04-26T04:36:53.291Z,31.13
2019-04-26T04:39:53.521Z,49.73
2019-04-26T04:42:54.900Z,21.93
2019-04-26T04:45:59.080Z,35.17
2019-04-26T04:49:06.313Z,19.67
2019-04-26T04:52:11.811Z,24.40
2019-04-26T04:55:00.784Z,18.30
2019-04-26T04:57:48.080Z,23.87
2019-04-26T05:00:45.052Z,26.73
2019-04-26T05:03:31.216Z,26.13
2019-04-26T05:06:13.364Z,27.57
2019-04-26T05:08:56.933Z,31.20
2019-04-26T05:11:51.838Z,25.10
2019-04-26T05:14:46.235Z,31.40
2019-04-26T05:17:47.482Z,37.10
2019-04-26T05:20:44.438Z,18.90
2019-04-26T05:23:41.885Z,23.27
2019-04-26T05:26:56.695Z,31.67
2019-04-26T05:30:28.583Z,25.73
2019-04-26T05:33:15.948Z,27.13
2019-04-26T05:36:03.212Z,22.60
2019-04-26T05:39:00.284Z,26.07
2019-04-26T05:41:53.655Z,20.67
2019-04-26T05:45:17.977Z,16.13
2019-04-26T05:48:11.836Z,25.97
2019-04-26T05:51:34.056Z,38.87
2019-04-26T05:54:54.781Z,20.27
2019-04-26T05:58:13.584Z,21.70
2019-04-26T06:01:50.525Z,29.40
2019-04-26T06:04:57.803Z,34.97
2019-04-26T06:08:02.929Z,24.60
2019-04-26T06:10:44.646Z,36.40
2019-04-26T06:14:06.792Z,37.30
2019-04-26T06:17:01.588Z,16.47
2019-04-26T06:19:59.372Z,22.57
2019-04-26T06:22:36.966Z,25.80
2019-04-26T06:25:38.569Z,20.17
2019-04-26T06:28:24.687Z,18.30
2019-04-26T06:31:16.550Z,15.27
2019-04-26T06:33:58.710Z,19.30
2019-04-26T06:36:43.927Z,32.27
2019-04-26T06:39:36.500Z,14.77
2019-04-26T06:42:29.996Z,26.43
2019-04-26T06:45:42.681Z,21.60
2019-04-26T06:48:35.552Z,22.73
2019-04-26T06:51:23.487Z,21.30
2019-04-26T06:54:13.431Z,15.43
2019-04-26T06:57:29.021Z,11.73
2019-04-26T07:00:13.302Z,22.50
2019-04-26T07:03:13.727Z,10.63
2019-04-26T07:05:45.616Z,11.80
2019-04-26T07:08:37.097Z,15.33
2019-04-26T07:12:03.847Z,17.53
2019-04-26T07:15:10.315Z,18.57
2019-04-26T07:18:15.577Z,9.87
2019-04-26T07:21:02.505Z,10.43
2019-04-26T07:23:55.894Z,21.13
2019-04-26T07:26:57.007Z,9.80
2019-04-26T07:30:09.740Z,9.00
2019-04-26T07:33:18.315Z,11.30
2019-04-26T07:36:12.897Z,12.10
2019-04-26T07:39:21.597Z,9.50
2019-04-26T07:42:56.666Z,12.97
2019-04-26T07:45:52.947Z,13.83
2019-04-26T07:48:59.744Z,11.33
2019-04-26T07:52:22.295Z,4.90
2019-04-26T07:55:31.336Z,8.90
2019-04-26T07:58:27.338Z,6.00
2019-04-26T08:01:16.877Z,8.50
2019-04-26T08:03:58.352Z,7.43
2019-04-26T08:06:43.052Z,11.70
2019-04-26T08:09:26.511Z,14.90
2019-04-26T08:11:50.554Z,21.67
2019-04-26T08:14:35.003Z,7.20
2019-04-26T08:17:39.594Z,6.30
2019-04-26T08:20:42.913Z,9.73
2019-04-26T08:23:37.330Z,6.30
2019-04-26T08:25:50.087Z,10.90
2019-04-26T08:28:21.939Z,13.00
2019-04-26T08:30:54.856Z,7.13
2019-04-26T08:33:33.397Z,4.60
2019-04-26T08:36:06.082Z,6.27
2019-04-26T08:38:39.372Z,6.53
2019-04-26T08:41:10.017Z,11.17
2019-04-26T08:43:59.804Z,6.63
2019-04-26T08:46:49.256Z,11.20
2019-04-26T08:49:35.177Z,4.13
2019-04-26T08:52:14.302Z,5.33
2019-04-26T08:54:45.564Z,6.53
2019-04-26T08:57:16.332Z,5.37
2019-04-26T08:59:50.237Z,15.80
2019-04-26T09:02:40.923Z,17.43
2019-04-26T09:05:33.039Z,5.27
2019-04-26T09:08:05.179Z,11.03
2019-04-26T09:10:43.282Z,5.23
2019-04-26T09:13:14.529Z,14.53
2019-04-26T09:16:05.102Z,13.73
2019-04-26T09:18:43.151Z,11.40
2019-04-26T09:21:06.055Z,9.07
2019-04-26T09:24:05.030Z,5.07
2019-04-26T09:26:42.453Z,5.43
2019-04-26T09:29:44.289Z,9.33
2019-04-26T09:32:16.992Z,13.57
2019-04-26T09:34:46.984Z,10.30
2019-04-26T09:37:17.333Z,9.73
2019-04-26T09:39:47.491Z,5.10
2019-04-26T09:42:27.048Z,14.90
2019-04-26T09:45:27.491Z,6.30
2019-04-26T09:48:01.854Z,5.37
2019-04-26T09:50:46.907Z,13.50
2019-04-26T09:53:17.019Z,6.80
2019-04-26T09:55:47.083Z,6.93
2019-04-26T09:58:16.150Z,6.27
2019-04-26T10:00:48.499Z,14.63
2019-04-26T10:03:18.248Z,6.70
2019-04-26T10:05:47.418Z,18.60
2019-04-26T10:08:19.681Z,13.20
2019-04-26T10:10:51.574Z,11.63
2019-04-26T10:13:44.605Z,7.20
2019-04-26T10:16:21.257Z,15.73
2019-04-26T10:18:58.334Z,8.93
2019-04-26T10:21:32.802Z,11.37
2019-04-26T10:24:02.006Z,7.13
2019-04-26T10:26:32.009Z,12.10
2019-04-26T10:29:01.203Z,7.60
2019-04-26T10:31:31.113Z,8.33
2019-04-26T10:34:00.388Z,8.13
2019-04-26T10:36:30.058Z,7.33
2019-04-26T10:39:00.488Z,7.90
2019-04-26T10:41:29.662Z,10.07
2019-04-26T10:44:00.612Z,7.57
2019-04-26T10:46:29.679Z,10.37
2019-04-26T10:49:08.970Z,9.73
2019-04-26T10:51:38.722Z,11.23
2019-04-26T10:54:14.585Z,7.70
2019-04-26T10:57:09.344Z,11.73
2019-04-26T10:59:45.545Z,6.60
2019-04-26T11:02:18.192Z,7.80
2019-04-26T11:04:47.320Z,9.33
2019-04-26T11:07:17.687Z,10.33
2019-04-26T11:09:47.295Z,17.57
2019-04-26T11:12:17.120Z,6.27
2019-04-26T11:14:46.321Z,7.30
2019-04-26T11:17:16.253Z,8.47
2019-04-26T11:19:46.439Z,8.47
2019-04-26T11:22:28.600Z,11.60
2019-04-26T11:24:50.176Z,11.77
2019-04-26T11:27:19.576Z,9.40
2019-04-26T11:29:53.790Z,10.77
2019-04-26T11:32:19.441Z,10.93
2019-04-26T11:34:48.606Z,9.87
2019-04-26T11:37:19.449Z,16.43
2019-04-26T11:39:48.942Z,7.47
2019-04-26T11:42:18.082Z,8.33
2019-04-26T11:44:47.244Z,8.93
2019-04-26T11:47:16.466Z,10.20
2019-04-26T11:49:45.559Z,13.40
2019-04-26T11:52:14.800Z,7.30
2019-04-26T11:54:44.274Z,13.53
2019-04-26T11:57:13.673Z,6.03
2019-04-26T11:59:42.771Z,10.23
2019-04-26T12:02:12.369Z,3.13
2019-04-26T12:04:53.677Z,5.80
2019-04-26T12:07:26.996Z,12.40
2019-04-26T12:09:58.214Z,5.70
2019-04-26T12:12:27.396Z,7.83
2019-04-26T12:14:56.645Z,7.60
2019-04-26T12:17:27.141Z,12.53
2019-04-26T12:19:56.435Z,9.53
2019-04-26T12:22:26.579Z,6.37
2019-04-26T12:24:55.695Z,10.00
2019-04-26T12:27:26.586Z,5.53
2019-04-26T12:29:55.600Z,18.83
2019-04-26T12:32:25.059Z,9.60
2019-04-26T12:34:54.188Z,6.23
2019-04-26T12:37:26.247Z,12.30
2019-04-26T12:39:55.419Z,14.00
2019-04-26T12:42:24.910Z,8.00
2019-04-26T12:45:01.554Z,13.57
2019-04-26T12:47:40.112Z,8.93
2019-04-26T12:50:09.415Z,10.67
2019-04-26T12:52:38.519Z,9.67
2019-04-26T12:55:07.673Z,30.10
2019-04-26T12:57:40.671Z,15.63
2019-04-26T13:00:07.856Z,9.10
2019-04-26T13:02:37.108Z,12.13
2019-04-26T13:05:06.790Z,8.83
2019-04-26T13:07:39.006Z,7.93
2019-04-26T13:10:31.393Z,14.10
2019-04-26T13:13:06.995Z,9.47
2019-04-26T13:16:06.348Z,9.53
2019-04-26T13:18:35.605Z,5.80
2019-04-26T13:21:07.927Z,7.43
2019-04-26T13:23:37.429Z,4.20
2019-04-26T13:26:06.618Z,6.63
2019-04-26T13:28:35.903Z,6.60
2019-04-26T13:31:05.156Z,9.63
2019-04-26T13:33:34.339Z,3.77
2019-04-26T13:36:05.437Z,9.60
2019-04-26T13:38:34.692Z,7.87
2019-04-26T13:41:06.271Z,7.50
2019-04-26T13:43:35.266Z,29.23
2019-04-26T13:46:26.408Z,3.90
2019-04-26T13:49:09.679Z,2.70
2019-04-26T13:51:39.140Z,14.17
2019-04-26T13:54:08.969Z,8.43
2019-04-26T13:56:38.055Z,4.40
2019-04-26T13:59:08.040Z,5.07
2019-04-26T14:01:38.555Z,3.77
2019-04-26T14:04:09.377Z,4.07
2019-04-26T14:06:40.723Z,6.53
2019-04-26T14:09:11.455Z,5.70
2019-04-26T14:11:40.669Z,3.70
2019-04-26T14:14:10.013Z,5.60
2019-04-26T14:16:39.350Z,5.80
2019-04-26T14:19:14.628Z,5.37
2019-04-26T14:21:39.605Z,5.07
2019-04-26T14:24:36.815Z,2.43
2019-04-26T14:27:14.916Z,4.17
2019-04-26T14:29:44.415Z,6.90
2019-04-26T14:32:13.425Z,4.43
2019-04-26T14:34:45.107Z,8.47
2019-04-26T14:37:15.626Z,9.07
2019-04-26T14:39:50.603Z,6.57
2019-04-26T14:42:15.587Z,8.13
2019-04-26T14:44:49.476Z,6.17
2019-04-26T14:47:17.999Z,7.50
2019-04-26T14:49:46.327Z,4.37
2019-04-26T14:52:15.492Z,10.40
2019-04-26T14:54:46.032Z,4.47
2019-04-26T14:57:22.522Z,4.13
2019-04-26T14:59:56.645Z,7.73
2019-04-26T15:02:47.202Z,5.07
2019-04-26T15:05:33.218Z,12.07
2019-04-26T15:08:03.899Z,11.80
2019-04-26T15:10:45.728Z,3.93
2019-04-26T15:13:17.365Z,4.37
2019-04-26T15:15:38.663Z,6.00
2019-04-26T15:18:07.925Z,10.00
2019-04-26T15:20:37.408Z,8.60
2019-04-26T15:23:06.550Z,7.63
2019-04-26T15:25:36.871Z,5.20
2019-04-26T15:28:06.924Z,6.10
2019-04-26T15:30:43.365Z,5.50
2019-04-26T15:33:08.862Z,7.87
2019-04-26T15:35:38.802Z,6.07
2019-04-26T15:38:08.159Z,8.00
2019-04-26T15:41:11.774Z,9.43
2019-04-26T15:44:02.720Z,6.77
2019-04-26T15:46:50.986Z,6.50
2019-04-26T15:49:37.659Z,5.87
2019-04-26T15:52:06.940Z,8.00
2019-04-26T15:54:36.102Z,7.37
2019-04-26T15:57:06.581Z,6.50
2019-04-26T15:59:36.369Z,8.10
2019-04-26T16:02:05.676Z,7.10
2019-04-26T16:04:34.881Z,9.53
2019-04-26T16:07:04.094Z,5.90
2019-04-26T16:09:33.299Z,10.37
2019-04-26T16:12:03.544Z,7.30
2019-04-26T16:14:36.487Z,9.73
2019-04-26T16:17:06.527Z,6.40
2019-04-26T16:19:34.931Z,8.33
2019-04-26T16:22:04.156Z,12.33
2019-04-26T16:24:34.552Z,13.80
2019-04-26T16:27:04.473Z,12.57
2019-04-26T16:29:42.463Z,10.17
2019-04-26T16:32:34.610Z,10.30
2019-04-26T16:35:04.074Z,12.80
2019-04-26T16:37:35.186Z,9.53
2019-04-26T16:40:07.871Z,10.03
2019-04-26T16:42:35.917Z,16.87
2019-04-26T16:45:07.898Z,13.10
2019-04-26T16:47:44.996Z,15.23
2019-04-26T16:50:08.534Z,10.30
2019-04-26T16:55:17.627Z,14.17
2019-04-26T16:57:53.300Z,8.77
2019-04-26T17:00:16.210Z,9.23
2019-04-26T17:00:45.009Z,10.83
2019-04-26T17:02:44.023Z,16.97
2019-04-26T17:05:23.787Z,9.67
2019-04-26T17:07:46.045Z,11.10
2019-04-26T17:10:16.599Z,20.13
2019-04-26T17:12:50.532Z,20.07
2019-04-26T17:15:20.650Z,16.70
2019-04-26T17:17:50.443Z,15.53
2019-04-26T17:20:19.145Z,17.13
2019-04-26T17:23:13.296Z,19.47
2019-04-26T17:26:02.075Z,15.57
2019-04-26T17:28:32.592Z,15.63
2019-04-26T17:31:02.146Z,14.83
2019-04-26T17:33:32.678Z,17.83
2019-04-26T17:36:01.896Z,17.77
2019-04-26T17:38:31.284Z,21.07
2019-04-26T17:41:00.681Z,18.00
2019-04-26T17:43:30.595Z,14.73
2019-04-26T17:46:01.887Z,15.43
2019-04-26T17:48:33.573Z,18.03
2019-04-26T17:51:01.835Z,22.73
2019-04-26T17:53:33.148Z,15.03
2019-04-26T17:56:01.857Z,29.13
2019-04-26T17:58:34.304Z,15.90
2019-04-26T18:01:03.711Z,19.20
2019-04-26T18:03:33.471Z,21.10
2019-04-26T18:06:02.676Z,15.87
2019-04-26T18:08:40.797Z,17.40
2019-04-26T18:11:02.945Z,25.27
2019-04-26T18:13:32.201Z,24.33
2019-04-26T18:16:03.480Z,21.70
2019-04-26T18:19:10.109Z,23.57
2019-04-26T18:22:04.072Z,17.13
2019-04-26T18:24:34.970Z,25.07
2019-04-26T18:27:04.536Z,22.00
2019-04-26T18:29:33.760Z,29.80
2019-04-26T18:32:03.609Z,39.33
2019-04-26T18:34:37.204Z,24.10
2019-04-26T18:37:07.443Z,27.30
2019-04-26T18:39:36.733Z,26.07
2019-04-26T18:42:06.232Z,20.83
2019-04-26T18:44:39.099Z,26.13
2019-04-26T18:47:28.113Z,24.03
2019-04-26T18:49:58.298Z,22.73
2019-04-26T18:52:28.915Z,25.37
2019-04-26T18:55:05.445Z,25.27
2019-04-26T18:57:34.205Z,30.77
2019-04-26T19:00:04.130Z,28.20
2019-04-26T19:02:34.920Z,25.70
2019-04-26T19:05:04.397Z,22.60
2019-04-26T19:07:33.651Z,17.90
2019-04-26T19:10:05.236Z,14.30
2019-04-26T19:12:34.061Z,13.90
2019-04-26T19:15:22.266Z,17.20
2019-04-26T19:18:19.865Z,16.60
2019-04-26T19:21:08.061Z,17.17
2019-04-26T19:23:37.284Z,14.20
2019-04-26T19:26:09.422Z,19.30
2019-04-26T19:28:39.894Z,18.90
2019-04-26T19:31:08.513Z,15.53
2019-04-26T19:33:37.638Z,15.43
2019-04-26T19:36:06.786Z,18.20
2019-04-26T19:38:35.967Z,18.87
2019-04-26T19:41:05.159Z,19.43
2019-04-26T19:43:35.283Z,18.90
2019-04-26T19:46:12.930Z,26.77
2019-04-26T19:49:01.113Z,16.63
2019-04-26T19:51:52.262Z,16.97
2019-04-26T19:54:53.022Z,14.20
2019-04-26T19:57:26.840Z,17.80
2019-04-26T19:59:55.919Z,17.00
2019-04-26T20:02:26.865Z,20.63
2019-04-26T20:04:56.445Z,20.13
2019-04-26T20:07:28.354Z,20.20
2019-04-26T20:10:02.374Z,26.07
2019-04-26T20:12:29.531Z,25.17
2019-04-26T20:14:58.530Z,23.80
2019-04-26T20:17:27.773Z,22.57
2019-04-26T20:19:56.903Z,20.07
2019-04-26T20:22:29.991Z,26.53
2019-04-26T20:24:57.599Z,21.00
2019-04-26T20:27:27.976Z,18.47
2019-04-26T20:29:57.431Z,22.10
2019-04-26T20:32:31.979Z,39.77
2019-04-26T20:35:13.073Z,18.60
2019-04-26T20:37:44.896Z,25.23
2019-04-26T20:40:20.235Z,20.00
2019-04-26T20:42:44.372Z,10.37
2019-04-26T20:45:16.729Z,17.03
2019-04-26T20:47:46.774Z,13.20
2019-04-26T20:50:15.660Z,15.00
2019-04-26T20:52:45.558Z,9.63
2019-04-26T20:55:14.933Z,10.30
2019-04-26T20:57:44.947Z,10.23
2019-04-26T21:00:14.464Z,7.60
2019-04-26T21:02:43.629Z,11.90
2019-04-26T21:05:14.660Z,9.20
2019-04-26T21:07:49.379Z,7.30
2019-04-26T21:10:21.114Z,8.63
2019-04-26T21:12:47.336Z,13.07
2019-04-26T21:15:20.388Z,9.97
2019-04-26T21:17:46.888Z,11.07
2019-04-26T21:20:16.145Z,10.30
2019-04-26T21:22:45.352Z,10.47
2019-04-26T21:25:21.584Z,10.60
2019-04-26T21:28:08.107Z,9.67
2019-04-26T21:30:54.727Z,10.73
2019-04-26T21:33:39.036Z,11.27
2019-04-26T21:36:24.859Z,8.27
2019-04-26T21:39:04.094Z,8.40
2019-04-26T21:41:33.819Z,7.73
2019-04-26T21:44:03.206Z,7.07
2019-04-26T21:46:34.557Z,7.07
2019-04-26T21:49:03.765Z,6.87
2019-04-26T21:51:34.029Z,7.43
2019-04-26T21:54:03.775Z,7.37
2019-04-26T21:56:33.754Z,9.07
2019-04-26T21:59:03.748Z,7.20
2019-04-26T22:01:33.216Z,6.63
2019-04-26T22:04:03.075Z,6.60
2019-04-26T22:06:33.466Z,10.50
2019-04-26T22:09:11.422Z,8.50
2019-04-26T22:11:40.582Z,7.60
2019-04-26T22:14:20.104Z,8.93
2019-04-26T22:17:06.519Z,10.40
2019-04-26T22:19:49.828Z,9.23
2019-04-26T22:22:27.472Z,8.77
2019-04-26T22:24:57.758Z,9.73
2019-04-26T22:27:26.889Z,7.23
2019-04-26T22:29:55.908Z,9.13
2019-04-26T22:32:25.090Z,7.60
2019-04-26T22:34:54.204Z,5.47
2019-04-26T22:37:30.036Z,6.50
2019-04-26T22:39:57.124Z,7.30
2019-04-26T22:42:26.395Z,8.13
2019-04-26T22:45:09.423Z,7.87
2019-04-26T22:47:59.711Z,7.43
2019-04-26T22:50:28.715Z,5.27
2019-04-26T22:52:57.780Z,8.03
2019-04-26T22:55:27.573Z,7.37
2019-04-26T22:57:57.214Z,6.77
2019-04-26T23:00:29.758Z,8.87
2019-04-26T23:03:03.724Z,7.10
2019-04-26T23:05:30.756Z,4.43
2019-04-26T23:08:01.047Z,7.57
2019-04-26T23:10:36.522Z,6.73
2019-04-26T23:13:13.218Z,9.47
2019-04-26T23:15:54.350Z,6.27
2019-04-26T23:18:46.334Z,6.50
2019-04-26T23:21:21.029Z,9.50
2019-04-26T23:23:50.132Z,7.20
2019-04-26T23:26:19.303Z,7.70
2019-04-26T23:28:48.778Z,9.10
2019-04-26T23:31:17.952Z,6.33
2019-04-26T23:33:47.206Z,7.13
2019-04-26T23:36:18.367Z,8.27
2019-04-26T23:38:47.060Z,6.20
2019-04-26T23:41:17.410Z,5.30
2019-04-26T23:43:46.499Z,6.10
2019-04-26T23:46:18.890Z,6.03
2019-04-26T23:48:49.572Z,6.77
2019-04-26T23:51:17.674Z,6.80
2019-04-26T23:53:50.441Z,8.23
2019-04-26T23:56:21.895Z,5.40
2019-04-26T23:58:48.516Z,6.63
